sensor_id;sensor_type;location;lat;lon;timestamp;P1;durP1;ratioP1;P2;durP2;ratioP2
46216;SDS011;47258;59.424;13.482;2023-05-07T00:01:09;1.58;;;1.00;;
46216;SDS011;47258;59.424;13.482;2023-05-07T00:03:42;1.30;;;1.20;;
46216;SDS011;47258;59.424;13.482;2023-05-07T00:06:19;1.70;;;0.93;;
46216;SDS011;47258;59.424;13.482;2023-05-07T00:08:58;1.75;;;0.95;;
46216;SDS011;47258;59.424;13.482;2023-05-07T00:11:32;1.85;;;1.00;;
46216;SDS011;47258;59.424;13.482;2023-05-07T00:14:10;1.35;;;0.90;;
46216;SDS011;47258;59.424;13.482;2023-05-07T00:19:19;0.88;;;0.88;;
46216;SDS011;47258;59.424;13.482;2023-05-07T00:21:51;4.57;;;0.80;;
46216;SDS011;47258;59.424;13.482;2023-05-07T00:24:32;1.20;;;0.57;;
46216;SDS011;47258;59.424;13.482;2023-05-07T00:27:07;0.90;;;0.85;;
46216;SDS011;47258;59.424;13.482;2023-05-07T00:29:45;0.73;;;0.73;;
46216;SDS011;47258;59.424;13.482;2023-05-07T00:32:21;1.77;;;0.85;;
46216;SDS011;47258;59.424;13.482;2023-05-07T00:34:57;4.57;;;0.57;;
46216;SDS011;47258;59.424;13.482;2023-05-07T00:37:32;7.07;;;0.80;;
46216;SDS011;47258;59.424;13.482;2023-05-07T00:40:05;9.68;;;0.80;;
46216;SDS011;47258;59.424;13.482;2023-05-07T00:42:40;5.35;;;1.02;;
46216;SDS011;47258;59.424;13.482;2023-05-07T00:45:27;1.95;;;1.00;;
46216;SDS011;47258;59.424;13.482;2023-05-07T00:48:01;2.72;;;0.57;;
46216;SDS011;47258;59.424;13.482;2023-05-07T00:50:33;3.22;;;0.70;;
46216;SDS011;47258;59.424;13.482;2023-05-07T00:53:06;0.65;;;0.65;;
46216;SDS011;47258;59.424;13.482;2023-05-07T00:55:38;2.97;;;0.90;;
46216;SDS011;47258;59.424;13.482;2023-05-07T00:58:12;1.65;;;0.75;;
46216;SDS011;47258;59.424;13.482;2023-05-07T01:00:52;2.53;;;0.60;;
46216;SDS011;47258;59.424;13.482;2023-05-07T01:03:24;1.85;;;0.55;;
46216;SDS011;47258;59.424;13.482;2023-05-07T01:05:55;4.88;;;0.50;;
46216;SDS011;47258;59.424;13.482;2023-05-07T01:08:31;1.00;;;0.60;;
46216;SDS011;47258;59.424;13.482;2023-05-07T01:11:06;1.45;;;0.75;;
46216;SDS011;47258;59.424;13.482;2023-05-07T01:13:44;0.73;;;0.73;;
46216;SDS011;47258;59.424;13.482;2023-05-07T01:16:26;0.98;;;0.60;;
46216;SDS011;47258;59.424;13.482;2023-05-07T01:18:58;0.50;;;0.43;;
46216;SDS011;47258;59.424;13.482;2023-05-07T01:21:32;0.55;;;0.55;;
46216;SDS011;47258;59.424;13.482;2023-05-07T01:24:10;1.60;;;0.40;;
46216;SDS011;47258;59.424;13.482;2023-05-07T01:26:44;0.50;;;0.30;;
46216;SDS011;47258;59.424;13.482;2023-05-07T01:29:23;0.52;;;0.52;;
46216;SDS011;47258;59.424;13.482;2023-05-07T01:31:57;0.90;;;0.50;;
46216;SDS011;47258;59.424;13.482;2023-05-07T01:34:38;2.10;;;0.60;;
46216;SDS011;47258;59.424;13.482;2023-05-07T01:37:14;0.52;;;0.45;;
46216;SDS011;47258;59.424;13.482;2023-05-07T01:39:49;4.03;;;0.70;;
46216;SDS011;47258;59.424;13.482;2023-05-07T01:42:29;0.65;;;0.60;;
46216;SDS011;47258;59.424;13.482;2023-05-07T01:45:07;0.40;;;0.40;;
46216;SDS011;47258;59.424;13.482;2023-05-07T01:47:42;0.65;;;0.40;;
46216;SDS011;47258;59.424;13.482;2023-05-07T01:50:21;1.52;;;0.30;;
46216;SDS011;47258;59.424;13.482;2023-05-07T01:52:57;1.42;;;0.50;;
46216;SDS011;47258;59.424;13.482;2023-05-07T01:55:40;0.90;;;0.52;;
46216;SDS011;47258;59.424;13.482;2023-05-07T01:58:12;1.73;;;0.43;;
46216;SDS011;47258;59.424;13.482;2023-05-07T02:00:49;0.55;;;0.50;;
46216;SDS011;47258;59.424;13.482;2023-05-07T02:03:29;0.22;;;0.20;;
46216;SDS011;47258;59.424;13.482;2023-05-07T02:06:05;0.55;;;0.55;;
46216;SDS011;47258;59.424;13.482;2023-05-07T02:08:38;0.57;;;0.35;;
46216;SDS011;47258;59.424;13.482;2023-05-07T02:11:14;0.52;;;0.30;;
46216;SDS011;47258;59.424;13.482;2023-05-07T02:13:44;1.70;;;0.30;;
46216;SDS011;47258;59.424;13.482;2023-05-07T02:16:21;2.03;;;0.30;;
46216;SDS011;47258;59.424;13.482;2023-05-07T02:18:57;0.20;;;0.20;;
46216;SDS011;47258;59.424;13.482;2023-05-07T02:21:35;1.73;;;0.40;;
46216;SDS011;47258;59.424;13.482;2023-05-07T02:24:11;0.40;;;0.40;;
46216;SDS011;47258;59.424;13.482;2023-05-07T02:26:50;0.22;;;0.22;;
46216;SDS011;47258;59.424;13.482;2023-05-07T02:29:26;1.80;;;0.43;;
46216;SDS011;47258;59.424;13.482;2023-05-07T02:32:03;0.47;;;0.30;;
46216;SDS011;47258;59.424;13.482;2023-05-07T02:34:36;3.38;;;0.70;;
46216;SDS011;47258;59.424;13.482;2023-05-07T02:37:10;0.95;;;0.32;;
46216;SDS011;47258;59.424;13.482;2023-05-07T02:39:42;21.45;;;0.50;;
46216;SDS011;47258;59.424;13.482;2023-05-07T02:42:27;0.55;;;0.55;;
46216;SDS011;47258;59.424;13.482;2023-05-07T02:45:01;1.88;;;0.30;;
46216;SDS011;47258;59.424;13.482;2023-05-07T02:47:31;9.20;;;0.70;;
46216;SDS011;47258;59.424;13.482;2023-05-07T02:50:06;7.28;;;0.30;;
46216;SDS011;47258;59.424;13.482;2023-05-07T02:52:38;11.30;;;1.05;;
46216;SDS011;47258;59.424;13.482;2023-05-07T02:55:11;12.30;;;0.93;;
46216;SDS011;47258;59.424;13.482;2023-05-07T02:57:50;11.40;;;0.57;;
46216;SDS011;47258;59.424;13.482;2023-05-07T03:00:29;1.35;;;0.52;;
46216;SDS011;47258;59.424;13.482;2023-05-07T03:03:02;4.13;;;0.50;;
46216;SDS011;47258;59.424;13.482;2023-05-07T03:05:35;2.78;;;0.52;;
46216;SDS011;47258;59.424;13.482;2023-05-07T03:08:05;1.65;;;0.52;;
46216;SDS011;47258;59.424;13.482;2023-05-07T03:10:38;3.50;;;0.50;;
46216;SDS011;47258;59.424;13.482;2023-05-07T03:13:15;1.13;;;0.43;;
46216;SDS011;47258;59.424;13.482;2023-05-07T03:15:47;3.75;;;0.50;;
46216;SDS011;47258;59.424;13.482;2023-05-07T03:18:18;0.45;;;0.30;;
46216;SDS011;47258;59.424;13.482;2023-05-07T03:20:57;1.65;;;0.60;;
46216;SDS011;47258;59.424;13.482;2023-05-07T03:23:32;2.33;;;0.60;;
46216;SDS011;47258;59.424;13.482;2023-05-07T03:26:09;2.03;;;0.45;;
46216;SDS011;47258;59.424;13.482;2023-05-07T03:28:52;1.75;;;0.35;;
46216;SDS011;47258;59.424;13.482;2023-05-07T03:31:30;1.00;;;0.20;;
46216;SDS011;47258;59.424;13.482;2023-05-07T03:34:00;0.30;;;0.30;;
46216;SDS011;47258;59.424;13.482;2023-05-07T03:36:36;0.20;;;0.20;;
46216;SDS011;47258;59.424;13.482;2023-05-07T03:39:09;1.52;;;0.55;;
46216;SDS011;47258;59.424;13.482;2023-05-07T03:41:45;1.10;;;0.40;;
46216;SDS011;47258;59.424;13.482;2023-05-07T03:44:28;0.35;;;0.25;;
46216;SDS011;47258;59.424;13.482;2023-05-07T03:47:06;2.97;;;0.50;;
46216;SDS011;47258;59.424;13.482;2023-05-07T03:49:42;6.63;;;0.88;;
46216;SDS011;47258;59.424;13.482;2023-05-07T03:52:15;2.05;;;0.20;;
46216;SDS011;47258;59.424;13.482;2023-05-07T03:54:53;0.93;;;0.20;;
46216;SDS011;47258;59.424;13.482;2023-05-07T03:57:30;2.38;;;0.40;;
46216;SDS011;47258;59.424;13.482;2023-05-07T04:00:07;0.32;;;0.30;;
46216;SDS011;47258;59.424;13.482;2023-05-07T04:02:38;0.30;;;0.20;;
46216;SDS011;47258;59.424;13.482;2023-05-07T04:05:09;0.63;;;0.55;;
46216;SDS011;47258;59.424;13.482;2023-05-07T04:07:46;0.20;;;0.20;;
46216;SDS011;47258;59.424;13.482;2023-05-07T04:10:16;0.20;;;0.20;;
46216;SDS011;47258;59.424;13.482;2023-05-07T04:12:51;0.93;;;0.40;;
46216;SDS011;47258;59.424;13.482;2023-05-07T04:15:33;0.43;;;0.20;;
46216;SDS011;47258;59.424;13.482;2023-05-07T04:18:05;1.17;;;0.40;;
46216;SDS011;47258;59.424;13.482;2023-05-07T04:20:39;0.40;;;0.40;;
46216;SDS011;47258;59.424;13.482;2023-05-07T04:23:12;0.52;;;0.30;;
46216;SDS011;47258;59.424;13.482;2023-05-07T04:25:50;0.15;;;0.10;;
46216;SDS011;47258;59.424;13.482;2023-05-07T04:28:23;0.70;;;0.28;;
46216;SDS011;47258;59.424;13.482;2023-05-07T04:30:58;2.80;;;0.43;;
46216;SDS011;47258;59.424;13.482;2023-05-07T04:33:31;0.30;;;0.30;;
46216;SDS011;47258;59.424;13.482;2023-05-07T04:36:09;0.98;;;0.32;;
46216;SDS011;47258;59.424;13.482;2023-05-07T04:38:52;1.13;;;0.30;;
46216;SDS011;47258;59.424;13.482;2023-05-07T04:41:26;0.20;;;0.20;;
46216;SDS011;47258;59.424;13.482;2023-05-07T04:44:04;3.60;;;0.50;;
46216;SDS011;47258;59.424;13.482;2023-05-07T04:46:44;4.43;;;0.40;;
46216;SDS011;47258;59.424;13.482;2023-05-07T04:49:20;0.30;;;0.10;;
46216;SDS011;47258;59.424;13.482;2023-05-07T04:51:58;1.10;;;0.15;;
46216;SDS011;47258;59.424;13.482;2023-05-07T04:54:31;0.40;;;0.40;;
46216;SDS011;47258;59.424;13.482;2023-05-07T04:57:05;1.20;;;0.20;;
46216;SDS011;47258;59.424;13.482;2023-05-07T04:59:38;0.15;;;0.13;;
46216;SDS011;47258;59.424;13.482;2023-05-07T05:02:19;0.20;;;0.20;;
46216;SDS011;47258;59.424;13.482;2023-05-07T05:04:59;0.30;;;0.30;;
46216;SDS011;47258;59.424;13.482;2023-05-07T05:07:31;0.35;;;0.35;;
46216;SDS011;47258;59.424;13.482;2023-05-07T05:10:04;0.17;;;0.17;;
46216;SDS011;47258;59.424;13.482;2023-05-07T05:12:41;0.90;;;0.30;;
46216;SDS011;47258;59.424;13.482;2023-05-07T05:15:16;0.20;;;0.20;;
46216;SDS011;47258;59.424;13.482;2023-05-07T05:17:55;0.40;;;0.30;;
46216;SDS011;47258;59.424;13.482;2023-05-07T05:20:28;0.20;;;0.20;;
46216;SDS011;47258;59.424;13.482;2023-05-07T05:23:05;0.20;;;0.20;;
46216;SDS011;47258;59.424;13.482;2023-05-07T05:25:43;1.10;;;0.20;;
46216;SDS011;47258;59.424;13.482;2023-05-07T05:28:16;0.15;;;0.15;;
46216;SDS011;47258;59.424;13.482;2023-05-07T05:30:46;0.10;;;0.10;;
46216;SDS011;47258;59.424;13.482;2023-05-07T05:33:19;0.20;;;0.20;;
46216;SDS011;47258;59.424;13.482;2023-05-07T05:35:54;0.20;;;0.13;;
46216;SDS011;47258;59.424;13.482;2023-05-07T05:38:29;0.20;;;0.20;;
46216;SDS011;47258;59.424;13.482;2023-05-07T05:41:01;0.20;;;0.20;;
46216;SDS011;47258;59.424;13.482;2023-05-07T05:43:34;0.20;;;0.20;;
46216;SDS011;47258;59.424;13.482;2023-05-07T05:46:09;0.20;;;0.20;;
46216;SDS011;47258;59.424;13.482;2023-05-07T05:48:48;0.30;;;0.20;;
46216;SDS011;47258;59.424;13.482;2023-05-07T05:51:27;0.30;;;0.30;;
46216;SDS011;47258;59.424;13.482;2023-05-07T05:54:02;0.55;;;0.55;;
46216;SDS011;47258;59.424;13.482;2023-05-07T05:56:38;0.10;;;0.10;;
46216;SDS011;47258;59.424;13.482;2023-05-07T05:59:17;9.63;;;0.43;;
46216;SDS011;47258;59.424;13.482;2023-05-07T06:01:55;3.05;;;0.30;;
46216;SDS011;47258;59.424;13.482;2023-05-07T06:04:37;2.60;;;0.43;;
46216;SDS011;47258;59.424;13.482;2023-05-07T06:07:15;2.85;;;0.40;;
46216;SDS011;47258;59.424;13.482;2023-05-07T06:09:49;2.58;;;0.47;;
46216;SDS011;47258;59.424;13.482;2023-05-07T06:12:29;2.40;;;0.30;;
46216;SDS011;47258;59.424;13.482;2023-05-07T06:15:05;1.65;;;0.20;;
46216;SDS011;47258;59.424;13.482;2023-05-07T06:17:42;3.95;;;0.25;;
46216;SDS011;47258;59.424;13.482;2023-05-07T06:20:18;1.15;;;0.20;;
46216;SDS011;47258;59.424;13.482;2023-05-07T06:22:56;2.30;;;0.32;;
46216;SDS011;47258;59.424;13.482;2023-05-07T06:25:32;0.30;;;0.30;;
46216;SDS011;47258;59.424;13.482;2023-05-07T06:28:13;2.97;;;0.20;;
46216;SDS011;47258;59.424;13.482;2023-05-07T06:30:47;10.27;;;0.43;;
46216;SDS011;47258;59.424;13.482;2023-05-07T06:33:23;4.07;;;0.40;;
46216;SDS011;47258;59.424;13.482;2023-05-07T06:36:00;3.20;;;0.38;;
46216;SDS011;47258;59.424;13.482;2023-05-07T06:38:34;2.47;;;0.38;;
46216;SDS011;47258;59.424;13.482;2023-05-07T06:41:15;0.47;;;0.47;;
46216;SDS011;47258;59.424;13.482;2023-05-07T06:44:04;0.32;;;0.32;;
46216;SDS011;47258;59.424;13.482;2023-05-07T06:46:43;1.27;;;0.20;;
46216;SDS011;47258;59.424;13.482;2023-05-07T06:49:15;0.20;;;0.10;;
46216;SDS011;47258;59.424;13.482;2023-05-07T06:52:02;0.68;;;0.40;;
46216;SDS011;47258;59.424;13.482;2023-05-07T06:54:47;0.28;;;0.22;;
46216;SDS011;47258;59.424;13.482;2023-05-07T06:57:25;0.33;;;0.20;;
46216;SDS011;47258;59.424;13.482;2023-05-07T07:00:09;3.00;;;0.57;;
46216;SDS011;47258;59.424;13.482;2023-05-07T07:02:45;1.17;;;0.30;;
46216;SDS011;47258;59.424;13.482;2023-05-07T07:05:20;1.75;;;0.30;;
46216;SDS011;47258;59.424;13.482;2023-05-07T07:07:55;4.82;;;0.32;;
46216;SDS011;47258;59.424;13.482;2023-05-07T07:10:31;1.88;;;0.10;;
46216;SDS011;47258;59.424;13.482;2023-05-07T07:13:07;0.85;;;0.28;;
46216;SDS011;47258;59.424;13.482;2023-05-07T07:15:49;3.75;;;0.35;;
46216;SDS011;47258;59.424;13.482;2023-05-07T07:18:24;0.20;;;0.10;;
46216;SDS011;47258;59.424;13.482;2023-05-07T07:20:56;0.25;;;0.25;;
46216;SDS011;47258;59.424;13.482;2023-05-07T07:23:32;0.45;;;0.15;;
46216;SDS011;47258;59.424;13.482;2023-05-07T07:26:04;2.83;;;0.50;;
46216;SDS011;47258;59.424;13.482;2023-05-07T07:28:42;0.20;;;0.20;;
46216;SDS011;47258;59.424;13.482;2023-05-07T07:31:18;0.80;;;0.20;;
46216;SDS011;47258;59.424;13.482;2023-05-07T07:33:54;0.15;;;0.15;;
46216;SDS011;47258;59.424;13.482;2023-05-07T07:36:35;0.63;;;0.28;;
46216;SDS011;47258;59.424;13.482;2023-05-07T07:39:24;2.08;;;0.30;;
46216;SDS011;47258;59.424;13.482;2023-05-07T07:41:59;2.83;;;0.10;;
46216;SDS011;47258;59.424;13.482;2023-05-07T07:44:34;4.68;;;0.20;;
46216;SDS011;47258;59.424;13.482;2023-05-07T07:47:14;7.82;;;0.70;;
46216;SDS011;47258;59.424;13.482;2023-05-07T07:49:47;3.70;;;0.20;;
46216;SDS011;47258;59.424;13.482;2023-05-07T07:52:23;9.45;;;0.30;;
46216;SDS011;47258;59.424;13.482;2023-05-07T07:55:01;8.25;;;0.40;;
46216;SDS011;47258;59.424;13.482;2023-05-07T07:57:37;0.32;;;0.28;;
46216;SDS011;47258;59.424;13.482;2023-05-07T08:00:18;0.40;;;0.40;;
46216;SDS011;47258;59.424;13.482;2023-05-07T08:02:59;0.35;;;0.20;;
46216;SDS011;47258;59.424;13.482;2023-05-07T08:05:32;1.50;;;0.20;;
46216;SDS011;47258;59.424;13.482;2023-05-07T08:08:05;3.83;;;0.20;;
46216;SDS011;47258;59.424;13.482;2023-05-07T08:11:00;0.32;;;0.13;;
46216;SDS011;47258;59.424;13.482;2023-05-07T08:13:41;1.58;;;0.47;;
46216;SDS011;47258;59.424;13.482;2023-05-07T08:16:27;2.25;;;0.30;;
46216;SDS011;47258;59.424;13.482;2023-05-07T08:19:09;3.65;;;0.30;;
46216;SDS011;47258;59.424;13.482;2023-05-07T08:21:55;2.35;;;0.30;;
46216;SDS011;47258;59.424;13.482;2023-05-07T08:24:30;8.23;;;0.57;;
46216;SDS011;47258;59.424;13.482;2023-05-07T08:27:06;1.30;;;0.20;;
46216;SDS011;47258;59.424;13.482;2023-05-07T08:29:42;2.73;;;0.27;;
46216;SDS011;47258;59.424;13.482;2023-05-07T08:32:20;1.50;;;0.50;;
46216;SDS011;47258;59.424;13.482;2023-05-07T08:34:55;5.72;;;0.88;;
46216;SDS011;47258;59.424;13.482;2023-05-07T08:37:32;2.30;;;0.30;;
46216;SDS011;47258;59.424;13.482;2023-05-07T08:40:03;2.25;;;0.20;;
46216;SDS011;47258;59.424;13.482;2023-05-07T08:42:50;6.65;;;0.70;;
46216;SDS011;47258;59.424;13.482;2023-05-07T08:45:32;10.63;;;1.35;;
46216;SDS011;47258;59.424;13.482;2023-05-07T08:48:15;17.83;;;2.22;;
46216;SDS011;47258;59.424;13.482;2023-05-07T08:50:51;25.05;;;4.15;;
46216;SDS011;47258;59.424;13.482;2023-05-07T08:53:25;19.42;;;4.22;;
46216;SDS011;47258;59.424;13.482;2023-05-07T08:55:56;29.50;;;6.50;;
46216;SDS011;47258;59.424;13.482;2023-05-07T08:58:25;25.05;;;6.03;;
46216;SDS011;47258;59.424;13.482;2023-05-07T09:00:53;16.20;;;4.40;;
46216;SDS011;47258;59.424;13.482;2023-05-07T09:03:23;24.02;;;3.03;;
46216;SDS011;47258;59.424;13.482;2023-05-07T09:05:51;11.13;;;1.65;;
46216;SDS011;47258;59.424;13.482;2023-05-07T09:08:19;10.05;;;1.48;;
46216;SDS011;47258;59.424;13.482;2023-05-07T09:10:52;8.07;;;1.60;;
46216;SDS011;47258;59.424;13.482;2023-05-07T09:13:20;4.93;;;1.60;;
46216;SDS011;47258;59.424;13.482;2023-05-07T09:15:49;5.25;;;1.65;;
46216;SDS011;47258;59.424;13.482;2023-05-07T09:18:16;6.03;;;1.60;;
46216;SDS011;47258;59.424;13.482;2023-05-07T09:20:43;6.20;;;1.80;;
46216;SDS011;47258;59.424;13.482;2023-05-07T09:23:10;5.25;;;1.55;;
46216;SDS011;47258;59.424;13.482;2023-05-07T09:25:38;5.70;;;1.60;;
46216;SDS011;47258;59.424;13.482;2023-05-07T09:28:05;4.25;;;1.83;;
46216;SDS011;47258;59.424;13.482;2023-05-07T09:33:04;4.20;;;1.20;;
46216;SDS011;47258;59.424;13.482;2023-05-07T09:35:31;4.03;;;1.60;;
46216;SDS011;47258;59.424;13.482;2023-05-07T09:37:59;4.15;;;1.52;;
46216;SDS011;47258;59.424;13.482;2023-05-07T09:40:28;3.70;;;1.65;;
46216;SDS011;47258;59.424;13.482;2023-05-07T09:43:01;3.03;;;0.98;;
46216;SDS011;47258;59.424;13.482;2023-05-07T09:45:36;4.18;;;1.50;;
46216;SDS011;47258;59.424;13.482;2023-05-07T09:48:06;3.40;;;0.90;;
46216;SDS011;47258;59.424;13.482;2023-05-07T09:50:36;2.53;;;1.30;;
46216;SDS011;47258;59.424;13.482;2023-05-07T09:53:07;6.40;;;1.35;;
46216;SDS011;47258;59.424;13.482;2023-05-07T09:55:37;1.58;;;0.90;;
46216;SDS011;47258;59.424;13.482;2023-05-07T09:58:08;2.63;;;1.00;;
46216;SDS011;47258;59.424;13.482;2023-05-07T10:00:39;5.60;;;1.30;;
46216;SDS011;47258;59.424;13.482;2023-05-07T10:03:11;4.27;;;1.23;;
46216;SDS011;47258;59.424;13.482;2023-05-07T10:05:40;3.85;;;1.77;;
46216;SDS011;47258;59.424;13.482;2023-05-07T10:08:09;3.00;;;1.13;;
46216;SDS011;47258;59.424;13.482;2023-05-07T10:10:38;2.63;;;1.00;;
46216;SDS011;47258;59.424;13.482;2023-05-07T10:13:06;1.77;;;0.98;;
46216;SDS011;47258;59.424;13.482;2023-05-07T10:15:36;1.95;;;0.80;;
46216;SDS011;47258;59.424;13.482;2023-05-07T10:18:05;4.30;;;1.08;;
46216;SDS011;47258;59.424;13.482;2023-05-07T10:20:37;5.50;;;1.45;;
46216;SDS011;47258;59.424;13.482;2023-05-07T10:23:05;0.60;;;0.60;;
46216;SDS011;47258;59.424;13.482;2023-05-07T10:28:03;2.88;;;0.90;;
46216;SDS011;47258;59.424;13.482;2023-05-07T10:30:35;1.38;;;0.95;;
46216;SDS011;47258;59.424;13.482;2023-05-07T10:33:15;1.92;;;0.88;;
46216;SDS011;47258;59.424;13.482;2023-05-07T10:35:48;0.95;;;0.60;;
46216;SDS011;47258;59.424;13.482;2023-05-07T10:38:15;1.45;;;1.15;;
46216;SDS011;47258;59.424;13.482;2023-05-07T10:40:44;4.03;;;1.00;;
46216;SDS011;47258;59.424;13.482;2023-05-07T10:43:13;1.05;;;0.50;;
46216;SDS011;47258;59.424;13.482;2023-05-07T10:45:41;1.60;;;0.80;;
46216;SDS011;47258;59.424;13.482;2023-05-07T10:48:10;1.27;;;0.40;;
46216;SDS011;47258;59.424;13.482;2023-05-07T10:50:40;1.63;;;0.75;;
46216;SDS011;47258;59.424;13.482;2023-05-07T10:58:56;1.03;;;0.70;;
46216;SDS011;47258;59.424;13.482;2023-05-07T11:01:50;1.17;;;0.55;;
46216;SDS011;47258;59.424;13.482;2023-05-07T11:04:20;1.23;;;0.80;;
46216;SDS011;47258;59.424;13.482;2023-05-07T11:12:47;2.25;;;1.25;;
46216;SDS011;47258;59.424;13.482;2023-05-07T11:15:36;0.52;;;0.52;;
46216;SDS011;47258;59.424;13.482;2023-05-07T11:18:04;0.52;;;0.52;;
46216;SDS011;47258;59.424;13.482;2023-05-07T11:20:45;1.05;;;0.60;;
46216;SDS011;47258;59.424;13.482;2023-05-07T11:26:43;1.45;;;0.47;;
46216;SDS011;47258;59.424;13.482;2023-05-07T11:29:12;0.40;;;0.40;;
46216;SDS011;47258;59.424;13.482;2023-05-07T11:31:41;3.28;;;0.60;;
46216;SDS011;47258;59.424;13.482;2023-05-07T11:34:09;2.03;;;0.80;;
46216;SDS011;47258;59.424;13.482;2023-05-07T11:36:41;1.38;;;0.50;;
46216;SDS011;47258;59.424;13.482;2023-05-07T11:39:26;1.08;;;0.60;;
46216;SDS011;47258;59.424;13.482;2023-05-07T11:41:56;0.65;;;0.40;;
46216;SDS011;47258;59.424;13.482;2023-05-07T11:46:50;1.02;;;0.50;;
46216;SDS011;47258;59.424;13.482;2023-05-07T11:49:18;0.70;;;0.70;;
46216;SDS011;47258;59.424;13.482;2023-05-07T11:51:45;3.55;;;0.40;;
46216;SDS011;47258;59.424;13.482;2023-05-07T11:54:15;0.85;;;0.70;;
46216;SDS011;47258;59.424;13.482;2023-05-07T11:56:43;0.90;;;0.52;;
46216;SDS011;47258;59.424;13.482;2023-05-07T11:59:18;0.82;;;0.47;;
46216;SDS011;47258;59.424;13.482;2023-05-07T12:01:46;1.50;;;0.60;;
46216;SDS011;47258;59.424;13.482;2023-05-07T12:04:18;1.55;;;0.50;;
46216;SDS011;47258;59.424;13.482;2023-05-07T12:06:46;1.25;;;0.50;;
46216;SDS011;47258;59.424;13.482;2023-05-07T12:09:16;0.55;;;0.45;;
46216;SDS011;47258;59.424;13.482;2023-05-07T12:11:45;0.47;;;0.40;;
46216;SDS011;47258;59.424;13.482;2023-05-07T12:14:13;0.65;;;0.50;;
46216;SDS011;47258;59.424;13.482;2023-05-07T12:16:42;0.68;;;0.30;;
46216;SDS011;47258;59.424;13.482;2023-05-07T12:19:11;0.90;;;0.40;;
46216;SDS011;47258;59.424;13.482;2023-05-07T12:21:38;1.60;;;0.65;;
46216;SDS011;47258;59.424;13.482;2023-05-07T12:24:07;1.75;;;0.50;;
46216;SDS011;47258;59.424;13.482;2023-05-07T12:26:37;0.45;;;0.38;;
46216;SDS011;47258;59.424;13.482;2023-05-07T12:29:05;2.42;;;0.95;;
46216;SDS011;47258;59.424;13.482;2023-05-07T12:31:33;1.90;;;0.60;;
46216;SDS011;47258;59.424;13.482;2023-05-07T12:34:02;0.30;;;0.30;;
46216;SDS011;47258;59.424;13.482;2023-05-07T12:36:36;0.88;;;0.60;;
46216;SDS011;47258;59.424;13.482;2023-05-07T12:39:04;1.33;;;0.50;;
46216;SDS011;47258;59.424;13.482;2023-05-07T12:41:35;0.30;;;0.30;;
46216;SDS011;47258;59.424;13.482;2023-05-07T12:44:18;1.13;;;0.65;;
46216;SDS011;47258;59.424;13.482;2023-05-07T12:46:48;0.77;;;0.70;;
46216;SDS011;47258;59.424;13.482;2023-05-07T12:49:17;1.10;;;0.50;;
46216;SDS011;47258;59.424;13.482;2023-05-07T12:51:44;2.95;;;0.50;;
46216;SDS011;47258;59.424;13.482;2023-05-07T12:56:41;3.22;;;0.57;;
46216;SDS011;47258;59.424;13.482;2023-05-07T12:59:08;2.75;;;0.90;;
46216;SDS011;47258;59.424;13.482;2023-05-07T13:01:35;4.65;;;1.00;;
46216;SDS011;47258;59.424;13.482;2023-05-07T13:04:03;5.03;;;1.33;;
46216;SDS011;47258;59.424;13.482;2023-05-07T13:06:32;3.17;;;1.63;;
46216;SDS011;47258;59.424;13.482;2023-05-07T13:08:59;5.68;;;2.25;;
46216;SDS011;47258;59.424;13.482;2023-05-07T13:11:27;9.18;;;2.45;;
46216;SDS011;47258;59.424;13.482;2023-05-07T13:13:54;6.63;;;2.55;;
46216;SDS011;47258;59.424;13.482;2023-05-07T13:16:21;8.80;;;2.00;;
46216;SDS011;47258;59.424;13.482;2023-05-07T13:18:49;7.53;;;2.38;;
46216;SDS011;47258;59.424;13.482;2023-05-07T13:21:16;10.27;;;3.63;;
46216;SDS011;47258;59.424;13.482;2023-05-07T13:23:45;6.45;;;2.45;;
46216;SDS011;47258;59.424;13.482;2023-05-07T13:26:12;4.30;;;1.77;;
46216;SDS011;47258;59.424;13.482;2023-05-07T13:28:40;7.72;;;2.30;;
46216;SDS011;47258;59.424;13.482;2023-05-07T13:31:08;6.68;;;2.40;;
46216;SDS011;47258;59.424;13.482;2023-05-07T13:33:35;4.88;;;1.85;;
46216;SDS011;47258;59.424;13.482;2023-05-07T13:36:03;3.47;;;1.52;;
46216;SDS011;47258;59.424;13.482;2023-05-07T13:38:31;1.58;;;1.00;;
46216;SDS011;47258;59.424;13.482;2023-05-07T13:41:02;5.05;;;1.35;;
46216;SDS011;47258;59.424;13.482;2023-05-07T13:43:30;3.38;;;1.00;;
46216;SDS011;47258;59.424;13.482;2023-05-07T13:45:58;4.80;;;1.00;;
46216;SDS011;47258;59.424;13.482;2023-05-07T13:48:26;1.77;;;0.93;;
46216;SDS011;47258;59.424;13.482;2023-05-07T13:50:53;2.55;;;1.00;;
46216;SDS011;47258;59.424;13.482;2023-05-07T13:53:21;1.30;;;0.95;;
46216;SDS011;47258;59.424;13.482;2023-05-07T13:55:48;1.10;;;0.68;;
46216;SDS011;47258;59.424;13.482;2023-05-07T13:58:17;4.05;;;1.05;;
46216;SDS011;47258;59.424;13.482;2023-05-07T14:00:45;3.35;;;1.08;;
46216;SDS011;47258;59.424;13.482;2023-05-07T14:03:13;0.68;;;0.68;;
46216;SDS011;47258;59.424;13.482;2023-05-07T14:05:41;1.42;;;0.77;;
46216;SDS011;47258;59.424;13.482;2023-05-07T14:08:08;2.30;;;0.57;;
46216;SDS011;47258;59.424;13.482;2023-05-07T14:10:36;1.85;;;0.63;;
46216;SDS011;47258;59.424;13.482;2023-05-07T14:13:03;1.83;;;0.40;;
46216;SDS011;47258;59.424;13.482;2023-05-07T14:15:32;1.38;;;0.57;;
46216;SDS011;47258;59.424;13.482;2023-05-07T14:18:00;2.03;;;0.73;;
46216;SDS011;47258;59.424;13.482;2023-05-07T14:20:29;1.27;;;0.68;;
46216;SDS011;47258;59.424;13.482;2023-05-07T14:22:56;1.85;;;0.60;;
46216;SDS011;47258;59.424;13.482;2023-05-07T14:25:24;1.52;;;0.60;;
46216;SDS011;47258;59.424;13.482;2023-05-07T14:27:51;0.70;;;0.70;;
46216;SDS011;47258;59.424;13.482;2023-05-07T14:30:19;3.00;;;1.02;;
46216;SDS011;47258;59.424;13.482;2023-05-07T14:32:49;1.03;;;0.30;;
46216;SDS011;47258;59.424;13.482;2023-05-07T14:35:16;0.70;;;0.70;;
46216;SDS011;47258;59.424;13.482;2023-05-07T14:37:44;0.98;;;0.60;;
46216;SDS011;47258;59.424;13.482;2023-05-07T14:40:11;2.15;;;0.57;;
46216;SDS011;47258;59.424;13.482;2023-05-07T14:42:39;0.95;;;0.60;;
46216;SDS011;47258;59.424;13.482;2023-05-07T14:45:07;3.35;;;0.80;;
46216;SDS011;47258;59.424;13.482;2023-05-07T14:47:36;0.63;;;0.63;;
46216;SDS011;47258;59.424;13.482;2023-05-07T14:50:05;1.23;;;0.85;;
46216;SDS011;47258;59.424;13.482;2023-05-07T14:52:33;2.83;;;0.70;;
46216;SDS011;47258;59.424;13.482;2023-05-07T14:55:00;0.75;;;0.75;;
46216;SDS011;47258;59.424;13.482;2023-05-07T14:57:27;1.55;;;0.73;;
46216;SDS011;47258;59.424;13.482;2023-05-07T14:59:55;2.50;;;0.50;;
46216;SDS011;47258;59.424;13.482;2023-05-07T15:04:51;1.65;;;0.47;;
46216;SDS011;47258;59.424;13.482;2023-05-07T15:07:21;1.00;;;0.60;;
46216;SDS011;47258;59.424;13.482;2023-05-07T15:09:48;0.57;;;0.57;;
46216;SDS011;47258;59.424;13.482;2023-05-07T15:12:16;1.17;;;0.52;;
46216;SDS011;47258;59.424;13.482;2023-05-07T15:14:43;0.80;;;0.40;;
46216;SDS011;47258;59.424;13.482;2023-05-07T15:17:11;1.50;;;0.65;;
46216;SDS011;47258;59.424;13.482;2023-05-07T15:19:40;2.10;;;0.70;;
46216;SDS011;47258;59.424;13.482;2023-05-07T15:22:07;0.98;;;0.90;;
46216;SDS011;47258;59.424;13.482;2023-05-07T15:24:36;0.85;;;0.85;;
46216;SDS011;47258;59.424;13.482;2023-05-07T15:27:03;1.40;;;1.30;;
46216;SDS011;47258;59.424;13.482;2023-05-07T15:29:31;0.80;;;0.75;;
46216;SDS011;47258;59.424;13.482;2023-05-07T15:31:59;1.55;;;0.82;;
46216;SDS011;47258;59.424;13.482;2023-05-07T15:34:27;1.35;;;0.63;;
46216;SDS011;47258;59.424;13.482;2023-05-07T15:36:55;1.20;;;0.63;;
46216;SDS011;47258;59.424;13.482;2023-05-07T15:39:23;0.52;;;0.52;;